Time;durP1;ratioP1;P1;durP2;ratioP2;P2;SDS_P1;SDS_P2;PMS_P1;PMS_P2;Temp;Humidity;BMP_temperature;BMP_pressure;BME280_temperature;BME280_humidity;BME280_pressure;Samples;Min_cycle;Max_cycle;Signal;HPM_P1;HPM_P2
2023/05/16 00:02:16;;;;;;;9.93;0.90;;;9.30;99.90;;;;;;5035356;28;20093;-37
2023/05/16 00:04:41;;;;;;;11.23;0.82;;;9.20;99.90;;;;;;5028767;28;20052;-37
2023/05/16 00:07:07;;;;;;;11.45;2.22;;;9.20;99.90;;;;;;5041469;28;20216;-37
2023/05/16 00:09:32;;;;;;;9.18;0.82;;;9.20;99.90;;;;;;5034678;28;20060;-37
2023/05/16 00:11:58;;;;;;;6.43;0.93;;;9.10;99.90;;;;;;5033507;28;20522;-37
2023/05/16 00:14:25;;;;;;;10.45;0.93;;;9.10;99.90;;;;;;5036416;28;20053;-35
2023/05/16 00:16:52;;;;;;;10.32;2.22;;;9.10;99.90;;;;;;5019714;28;20152;-36
2023/05/16 00:19:19;;;;;;;7.03;0.77;;;9.00;99.90;;;;;;5018866;28;20530;-36
2023/05/16 00:21:45;;;;;;;8.00;0.90;;;9.00;99.90;;;;;;5015749;28;20049;-35
2023/05/16 00:24:10;;;;;;;8.63;1.83;;;9.00;99.90;;;;;;5013568;28;20411;-36
2023/05/16 00:26:36;;;;;;;7.43;0.60;;;8.90;99.90;;;;;;5028840;28;20044;-36
2023/05/16 00:29:01;;;;;;;12.68;1.30;;;8.90;99.90;;;;;;5023795;28;20672;-36
2023/05/16 00:31:27;;;;;;;10.48;1.15;;;8.80;99.90;;;;;;5022059;28;20049;-37
2023/05/16 00:33:53;;;;;;;9.07;0.73;;;8.80;99.90;;;;;;5016762;28;20494;-37
2023/05/16 00:36:20;;;;;;;7.70;1.52;;;8.80;99.90;;;;;;5026390;28;20049;-37
2023/05/16 00:38:46;;;;;;;7.43;1.15;;;8.80;99.90;;;;;;5021360;28;20095;-35
2023/05/16 00:41:12;;;;;;;7.32;2.30;;;8.80;99.90;;;;;;5025337;28;20049;-36
2023/05/16 00:43:38;;;;;;;6.70;1.55;;;8.70;99.90;;;;;;5016390;28;20041;-36
2023/05/16 00:46:04;;;;;;;10.45;1.02;;;8.70;99.90;;;;;;5015018;28;20097;-36
2023/05/16 00:48:31;;;;;;;7.25;1.35;;;8.70;99.90;;;;;;5027130;28;20084;-36
2023/05/16 00:50:57;;;;;;;4.28;0.80;;;8.60;99.90;;;;;;5018554;28;20054;-36
2023/05/16 00:53:24;;;;;;;10.18;1.27;;;8.60;99.90;;;;;;5023105;28;20491;-37
2023/05/16 00:55:50;;;;;;;6.20;0.68;;;8.50;99.90;;;;;;5017566;28;20054;-35
2023/05/16 00:58:17;;;;;;;7.63;0.93;;;8.50;99.90;;;;;;5009629;28;20100;-36
2023/05/16 01:00:46;;;;;;;8.27;0.80;;;8.50;99.90;;;;;;5018708;28;20044;-37
2023/05/16 01:03:12;;;;;;;5.68;0.90;;;8.50;99.90;;;;;;5027512;28;20384;-37
2023/05/16 01:05:37;;;;;;;5.65;1.25;;;8.40;99.90;;;;;;5021310;28;20069;-36
2023/05/16 01:08:03;;;;;;;9.80;1.65;;;8.40;99.90;;;;;;5022474;28;20145;-36
2023/05/16 01:10:48;;;;;;;10.55;1.58;;;8.40;99.90;;;;;;5018728;28;20069;-36
2023/05/16 01:13:26;;;;;;;6.47;1.63;;;8.40;99.90;;;;;;5016610;28;20173;-37
2023/05/16 01:16:03;;;;;;;7.90;0.93;;;8.40;99.90;;;;;;5011575;28;20156;-36
2023/05/16 01:18:40;;;;;;;8.65;1.50;;;8.30;99.90;;;;;;5016389;28;20058;-37
2023/05/16 01:21:18;;;;;;;7.80;0.90;;;8.30;99.90;;;;;;5015881;28;20049;-37
2023/05/16 01:24:07;;;;;;;11.20;0.80;;;8.20;99.90;;;;;;5018114;28;20057;-36
2023/05/16 01:26:34;;;;;;;7.50;0.85;;;8.30;99.90;;;;;;5033820;28;20058;-36
2023/05/16 01:29:01;;;;;;;5.90;0.90;;;8.20;99.90;;;;;;5022476;28;20076;-36
2023/05/16 01:31:27;;;;;;;9.18;0.80;;;8.30;99.90;;;;;;5031483;28;20492;-36
2023/05/16 01:33:53;;;;;;;7.82;1.17;;;8.30;99.90;;;;;;5019159;28;20045;-36
2023/05/16 01:36:28;;;;;;;7.50;1.00;;;8.30;99.90;;;;;;5021794;28;20403;-36
2023/05/16 01:39:09;;;;;;;5.85;1.05;;;8.20;99.90;;;;;;5019943;28;20061;-36
2023/05/16 01:41:56;;;;;;;4.05;0.65;;;8.20;99.90;;;;;;5018531;28;20058;-36
2023/05/16 01:44:29;;;;;;;6.25;0.68;;;8.20;99.90;;;;;;5022220;28;20240;-35
2023/05/16 01:46:59;;;;;;;3.80;0.80;;;8.20;99.90;;;;;;5016067;28;20052;-36
2023/05/16 01:49:30;;;;;;;10.20;0.70;;;8.20;99.90;;;;;;5019188;28;20060;-35
2023/05/16 01:52:21;;;;;;;6.07;0.70;;;8.10;99.90;;;;;;5017893;28;20501;-35
2023/05/16 01:54:51;;;;;;;10.63;0.80;;;8.10;99.90;;;;;;5008623;28;20052;-36
2023/05/16 01:57:16;;;;;;;5.53;1.00;;;8.10;99.90;;;;;;5013141;28;20060;-36
2023/05/16 01:59:43;;;;;;;5.05;0.90;;;8.10;99.90;;;;;;5014891;28;20041;-36
2023/05/16 02:02:09;;;;;;;8.80;0.95;;;8.10;99.90;;;;;;5019031;28;20069;-36
2023/05/16 02:04:34;;;;;;;5.05;0.82;;;8.10;99.90;;;;;;5014156;28;20177;-36
2023/05/16 02:07:00;;;;;;;8.25;1.02;;;8.00;99.90;;;;;;5012161;28;20045;-37
2023/05/16 02:09:26;;;;;;;4.28;0.40;;;8.00;99.90;;;;;;5016069;28;20613;-36
2023/05/16 02:11:52;;;;;;;4.35;0.50;;;8.00;99.90;;;;;;5026882;28;20065;-36
2023/05/16 02:14:18;;;;;;;6.40;0.60;;;8.10;99.90;;;;;;5029057;28;20060;-35
2023/05/16 02:16:44;;;;;;;4.40;0.60;;;8.10;99.90;;;;;;5020900;28;20045;-35
2023/05/16 02:19:10;;;;;;;5.95;0.80;;;8.10;99.90;;;;;;5024914;28;20042;-36
2023/05/16 02:21:35;;;;;;;6.65;1.20;;;8.00;99.90;;;;;;5027452;28;20049;-35
2023/05/16 02:24:01;;;;;;;8.57;0.60;;;8.00;99.90;;;;;;5021106;28;20100;-37
2023/05/16 02:26:26;;;;;;;5.03;0.60;;;8.00;99.90;;;;;;5023553;28;20050;-35
2023/05/16 02:28:53;;;;;;;8.82;0.82;;;7.90;99.90;;;;;;5021855;28;20042;-36
2023/05/16 02:31:29;;;;;;;7.63;0.85;;;7.90;99.90;;;;;;5026941;28;20061;-36
2023/05/16 02:33:57;;;;;;;6.47;0.85;;;7.90;99.90;;;;;;5014268;28;20212;-36
2023/05/16 02:36:23;;;;;;;4.60;0.82;;;7.80;99.90;;;;;;5021980;28;20526;-36
2023/05/16 02:38:48;;;;;;;6.35;1.05;;;7.80;99.90;;;;;;5021124;28;20073;-36
2023/05/16 02:41:14;;;;;;;9.07;1.33;;;7.80;99.90;;;;;;5022373;28;20041;-36
2023/05/16 02:43:39;;;;;;;8.23;0.75;;;7.70;99.90;;;;;;5020600;28;20045;-36
2023/05/16 02:46:26;;;;;;;7.68;0.80;;;7.70;99.90;;;;;;5015215;28;20058;-36
2023/05/16 02:48:53;;;;;;;5.75;0.60;;;7.60;99.90;;;;;;5022595;28;20057;-37
2023/05/16 02:51:23;;;;;;;3.80;0.68;;;7.60;99.90;;;;;;5026156;28;20147;-37
2023/05/16 02:53:49;;;;;;;6.82;1.23;;;7.50;99.90;;;;;;5023925;28;20054;-36
2023/05/16 02:56:15;;;;;;;4.75;0.77;;;7.50;99.90;;;;;;5017775;28;20547;-36
2023/05/16 02:58:41;;;;;;;3.17;0.55;;;7.40;99.90;;;;;;5017718;28;20152;-36
2023/05/16 03:01:07;;;;;;;6.85;0.80;;;7.50;99.90;;;;;;5026232;28;20048;-37
2023/05/16 03:03:34;;;;;;;7.32;0.57;;;7.50;99.90;;;;;;5022934;28;20475;-36
2023/05/16 03:06:00;;;;;;;7.80;0.65;;;7.50;99.90;;;;;;5019442;28;20057;-36
2023/05/16 03:08:26;;;;;;;5.00;0.50;;;7.50;99.90;;;;;;5021099;28;20152;-35
2023/05/16 03:10:52;;;;;;;2.55;0.52;;;7.50;99.90;;;;;;5021970;28;20503;-37
2023/05/16 03:13:17;;;;;;;7.05;1.70;;;7.40;99.90;;;;;;5021968;28;20495;-37
2023/05/16 03:15:43;;;;;;;6.75;0.90;;;7.40;99.90;;;;;;5028090;28;20091;-36
2023/05/16 03:18:09;;;;;;;7.22;0.88;;;7.40;99.90;;;;;;5017220;28;20054;-37
2023/05/16 03:20:34;;;;;;;6.93;0.60;;;7.40;99.90;;;;;;5034610;28;20498;-36
2023/05/16 03:23:00;;;;;;;5.38;1.00;;;7.40;99.90;;;;;;5034839;28;20069;-35
2023/05/16 03:25:26;;;;;;;7.55;1.20;;;7.40;99.90;;;;;;5024923;28;20414;-36
2023/05/16 03:27:51;;;;;;;5.30;0.60;;;7.40;99.90;;;;;;5027080;28;20060;-36
2023/05/16 03:30:18;;;;;;;4.45;0.90;;;7.40;99.90;;;;;;5022222;28;20125;-36
2023/05/16 03:32:44;;;;;;;6.97;1.08;;;7.40;99.90;;;;;;5021633;28;20053;-36
2023/05/16 03:35:10;;;;;;;11.32;0.98;;;7.40;99.90;;;;;;5023219;28;20144;-37
2023/05/16 03:37:37;;;;;;;3.10;0.65;;;7.40;99.90;;;;;;5021851;28;20487;-38
2023/05/16 03:40:06;;;;;;;4.97;0.75;;;7.30;99.90;;;;;;5020460;28;20491;-37
2023/05/16 03:42:31;;;;;;;5.78;0.52;;;7.30;99.90;;;;;;5016949;28;20107;-37
2023/05/16 03:44:57;;;;;;;5.65;0.85;;;7.30;99.90;;;;;;5016526;28;20050;-36
2023/05/16 03:47:23;;;;;;;3.13;0.63;;;7.30;99.90;;;;;;5026500;28;20046;-37
2023/05/16 03:49:48;;;;;;;6.57;0.80;;;7.30;99.90;;;;;;5018493;28;20041;-37
2023/05/16 03:52:14;;;;;;;5.43;1.10;;;7.20;99.90;;;;;;5020070;28;20103;-37
2023/05/16 03:54:39;;;;;;;6.30;1.15;;;7.20;99.90;;;;;;5024774;28;20512;-36
2023/05/16 03:57:05;;;;;;;4.47;0.77;;;7.20;99.90;;;;;;5021849;28;20049;-36
2023/05/16 03:59:31;;;;;;;9.75;1.02;;;7.20;99.90;;;;;;5024028;28;20164;-36
2023/05/16 04:02:00;;;;;;;3.20;0.60;;;7.20;99.90;;;;;;5021355;28;20049;-37
2023/05/16 04:04:25;;;;;;;6.53;0.60;;;7.20;99.90;;;;;;5030772;28;20044;-36
2023/05/16 04:06:51;;;;;;;8.82;0.90;;;7.20;99.90;;;;;;5018202;28;20078;-38
2023/05/16 04:09:17;;;;;;;6.13;0.65;;;7.20;99.90;;;;;;5017383;28;20164;-36
2023/05/16 04:11:43;;;;;;;6.85;0.80;;;7.20;99.90;;;;;;5024402;28;20046;-36
2023/05/16 04:14:09;;;;;;;4.15;0.70;;;7.20;99.90;;;;;;5027007;28;20053;-35
2023/05/16 04:16:34;;;;;;;4.65;1.00;;;7.20;99.90;;;;;;5025029;28;20041;-36
2023/05/16 04:19:00;;;;;;;4.15;0.43;;;7.20;99.90;;;;;;5049804;28;20044;-36
2023/05/16 04:21:25;;;;;;;6.38;0.77;;;7.30;99.90;;;;;;5027318;28;20169;-36
2023/05/16 04:23:51;;;;;;;8.68;0.88;;;7.30;99.90;;;;;;5026734;28;20534;-36
2023/05/16 04:26:17;;;;;;;5.45;1.33;;;7.40;99.90;;;;;;5017689;28;20058;-36
2023/05/16 04:28:42;;;;;;;5.35;0.85;;;7.40;99.90;;;;;;5020592;28;20136;-36
2023/05/16 04:31:08;;;;;;;7.40;0.85;;;7.40;99.90;;;;;;5013333;28;20460;-36
2023/05/16 04:33:34;;;;;;;4.95;0.77;;;7.50;99.90;;;;;;5022811;28;20060;-36
2023/05/16 04:35:59;;;;;;;6.55;0.95;;;7.50;99.90;;;;;;5027984;28;20140;-36
2023/05/16 04:38:25;;;;;;;4.93;0.90;;;7.60;99.90;;;;;;5024820;28;20045;-37
2023/05/16 04:40:51;;;;;;;9.35;0.80;;;7.60;99.90;;;;;;5026355;28;20049;-36
2023/05/16 04:43:17;;;;;;;3.50;0.50;;;7.70;99.90;;;;;;5035455;28;20156;-36
2023/05/16 04:45:43;;;;;;;5.38;0.50;;;7.70;99.90;;;;;;5030894;28;20140;-36
2023/05/16 04:48:10;;;;;;;7.78;1.65;;;7.80;99.90;;;;;;5023499;28;20132;-36
2023/05/16 04:50:36;;;;;;;6.70;1.50;;;7.80;99.90;;;;;;5024965;28;20132;-35
2023/05/16 04:53:02;;;;;;;5.93;0.55;;;7.90;99.90;;;;;;5023046;28;20065;-36
2023/05/16 04:55:28;;;;;;;6.30;1.00;;;7.90;99.90;;;;;;5014232;28;20161;-36
2023/05/16 04:57:53;;;;;;;4.63;0.68;;;7.90;99.90;;;;;;5023690;28;20056;-36
2023/05/16 05:00:19;;;;;;;6.55;1.00;;;8.10;99.90;;;;;;5027916;28;20064;-37
2023/05/16 05:02:45;;;;;;;5.13;0.63;;;8.20;99.90;;;;;;5030985;28;20077;-35
2023/05/16 05:05:11;;;;;;;5.82;0.90;;;8.30;99.90;;;;;;5020174;28;20534;-36
2023/05/16 05:07:37;;;;;;;4.55;0.95;;;8.40;99.90;;;;;;5025561;28;20045;-36
2023/05/16 05:10:03;;;;;;;8.80;0.90;;;8.50;99.90;;;;;;5018645;28;20072;-36
2023/05/16 05:12:28;;;;;;;4.85;0.68;;;8.50;99.90;;;;;;5015783;28;20415;-36
2023/05/16 05:14:54;;;;;;;6.63;0.80;;;8.60;99.90;;;;;;5019377;28;20065;-36
2023/05/16 05:17:20;;;;;;;10.50;0.88;;;8.60;99.90;;;;;;5025659;28;20041;-37
2023/05/16 05:19:47;;;;;;;3.97;0.63;;;8.70;99.90;;;;;;5025751;28;20041;-35
2023/05/16 05:22:13;;;;;;;5.40;0.68;;;8.70;99.90;;;;;;5019277;28;20076;-36
2023/05/16 05:24:39;;;;;;;5.80;1.02;;;8.80;99.90;;;;;;5017588;28;20496;-36
2023/05/16 05:27:05;;;;;;;9.57;1.55;;;8.90;99.90;;;;;;5024361;28;20048;-36
2023/05/16 05:29:30;;;;;;;11.15;1.75;;;9.00;99.90;;;;;;5030972;28;20411;-36
2023/05/16 05:31:56;;;;;;;2.60;0.98;;;9.00;99.90;;;;;;5031813;28;20050;-36
2023/05/16 05:34:22;;;;;;;6.35;2.00;;;9.10;99.90;;;;;;5028553;28;20168;-36
2023/05/16 05:36:47;;;;;;;6.18;0.50;;;9.20;99.90;;;;;;5021376;28;20477;-36
2023/05/16 05:39:13;;;;;;;7.90;1.10;;;9.20;99.90;;;;;;5026229;28;20060;-35
2023/05/16 05:41:39;;;;;;;4.97;0.50;;;9.20;99.90;;;;;;5028208;28;20069;-35
2023/05/16 05:44:05;;;;;;;2.85;0.50;;;9.30;99.90;;;;;;5026088;28;20134;-34
2023/05/16 05:46:32;;;;;;;4.97;0.60;;;9.40;99.90;;;;;;5026917;28;20419;-35
2023/05/16 05:48:58;;;;;;;5.20;0.63;;;9.40;99.90;;;;;;5019257;28;20053;-35
2023/05/16 05:51:24;;;;;;;4.68;0.50;;;9.50;99.90;;;;;;5019745;28;20049;-35
2023/05/16 05:53:51;;;;;;;7.63;0.60;;;9.60;99.90;;;;;;5023538;28;20057;-35
2023/05/16 05:56:17;;;;;;;7.07;0.93;;;9.70;99.90;;;;;;5020953;28;20060;-35
2023/05/16 05:58:43;;;;;;;5.60;0.57;;;9.70;99.90;;;;;;5018211;28;20057;-35
2023/05/16 06:01:10;;;;;;;7.82;1.30;;;9.80;99.90;;;;;;5027859;28;20114;-35
2023/05/16 06:03:36;;;;;;;3.65;0.40;;;9.90;99.90;;;;;;5028407;28;20494;-35
2023/05/16 06:06:03;;;;;;;2.88;0.60;;;9.90;99.90;;;;;;5019905;28;20057;-35
2023/05/16 06:08:28;;;;;;;6.85;0.75;;;10.00;99.90;;;;;;5017574;28;20080;-35
2023/05/16 06:10:54;;;;;;;6.18;0.60;;;10.10;99.90;;;;;;5018987;28;20104;-35
2023/05/16 06:13:20;;;;;;;4.30;0.80;;;10.20;99.90;;;;;;5022183;28;20801;-35
2023/05/16 06:15:53;;;;;;;4.38;0.60;;;10.20;99.90;;;;;;5014977;28;20057;-35
2023/05/16 06:18:19;;;;;;;3.60;0.52;;;10.30;99.90;;;;;;5019342;28;20061;-35
2023/05/16 06:20:45;;;;;;;6.03;0.57;;;10.40;99.90;;;;;;5022805;28;20080;-35
2023/05/16 06:23:11;;;;;;;4.10;0.60;;;10.50;99.90;;;;;;5013869;28;20076;-35
2023/05/16 06:25:37;;;;;;;3.13;0.50;;;10.70;99.90;;;;;;5021754;28;20480;-35
2023/05/16 06:28:03;;;;;;;5.85;0.50;;;10.80;99.90;;;;;;5027781;28;20396;-35
2023/05/16 06:30:28;;;;;;;8.60;0.55;;;10.90;99.90;;;;;;5014660;28;20050;-35
2023/05/16 06:32:54;;;;;;;7.10;0.50;;;11.00;99.90;;;;;;5019694;28;20406;-35
2023/05/16 06:35:20;;;;;;;6.22;0.85;;;11.10;99.90;;;;;;5018424;28;20080;-35
2023/05/16 06:37:45;;;;;;;5.70;0.50;;;11.10;99.90;;;;;;5017422;28;20041;-35
2023/05/16 06:40:11;;;;;;;5.03;0.57;;;11.00;99.90;;;;;;5028127;28;20111;-35
2023/05/16 06:42:37;;;;;;;3.22;0.30;;;11.00;99.90;;;;;;5016477;28;20045;-35
2023/05/16 06:45:03;;;;;;;2.15;0.40;;;11.10;99.90;;;;;;5025680;28;20049;-35
2023/05/16 06:47:29;;;;;;;4.30;0.40;;;11.10;99.90;;;;;;5023671;28;20129;-35
2023/05/16 06:49:54;;;;;;;4.25;0.50;;;11.10;99.90;;;;;;5034981;28;20175;-35
2023/05/16 06:52:21;;;;;;;1.92;0.68;;;11.10;99.90;;;;;;5028706;28;20049;-35
2023/05/16 06:54:46;;;;;;;10.20;0.55;;;11.00;99.90;;;;;;5029836;28;20053;-35
2023/05/16 06:57:12;;;;;;;8.15;0.50;;;10.80;99.90;;;;;;5024162;28;20053;-35
2023/05/16 06:59:38;;;;;;;6.13;0.60;;;10.80;99.90;;;;;;5033934;28;20057;-35
2023/05/16 07:02:04;;;;;;;4.55;0.38;;;10.80;99.90;;;;;;5033240;28;20045;-35
2023/05/16 07:04:30;;;;;;;2.95;0.65;;;10.80;99.90;;;;;;5031624;28;20511;-35
2023/05/16 07:06:56;;;;;;;3.28;0.50;;;10.90;99.90;;;;;;5027833;28;20084;-35
2023/05/16 07:09:22;;;;;;;4.72;0.82;;;11.10;99.90;;;;;;5019061;28;20227;-35
2023/05/16 07:11:47;;;;;;;3.83;0.80;;;11.20;99.90;;;;;;5016073;28;20045;-35
2023/05/16 07:14:13;;;;;;;4.57;0.50;;;11.30;99.90;;;;;;5015768;28;20057;-35
2023/05/16 07:16:38;;;;;;;5.25;0.68;;;11.50;99.90;;;;;;5017524;28;20473;-35
2023/05/16 07:19:04;;;;;;;1.23;0.30;;;11.60;99.90;;;;;;5019994;28;20107;-35
2023/05/16 07:21:30;;;;;;;5.55;0.50;;;11.70;99.90;;;;;;5018533;28;20573;-35
2023/05/16 07:23:56;;;;;;;6.15;0.50;;;11.80;99.90;;;;;;5007672;28;20459;-35
2023/05/16 07:26:22;;;;;;;6.60;0.75;;;11.80;99.90;;;;;;5010985;28;20556;-35
2023/05/16 07:28:51;;;;;;;4.55;0.68;;;11.80;99.90;;;;;;5015623;28;20061;-35
2023/05/16 07:31:17;;;;;;;4.60;0.40;;;11.80;99.90;;;;;;5008565;28;20052;-35
2023/05/16 07:33:44;;;;;;;5.82;0.60;;;12.00;99.90;;;;;;5019943;28;20495;-35
2023/05/16 07:36:10;;;;;;;5.57;0.35;;;12.00;99.90;;;;;;5019696;28;20137;-35
2023/05/16 07:38:35;;;;;;;2.60;0.40;;;12.20;99.90;;;;;;5030332;28;20176;-35
2023/05/16 07:41:01;;;;;;;5.32;1.13;;;12.40;99.90;;;;;;5026133;28;20048;-35
2023/05/16 07:43:27;;;;;;;2.25;0.40;;;12.70;99.90;;;;;;5039201;28;20415;-35
2023/05/16 07:45:53;;;;;;;1.65;0.40;;;13.00;99.90;;;;;;5037689;28;20058;-35
2023/05/16 07:48:18;;;;;;;10.10;0.73;;;13.10;99.90;;;;;;5026986;28;20053;-35
2023/05/16 07:50:44;;;;;;;4.15;0.85;;;12.90;99.90;;;;;;5014077;28;20088;-35
2023/05/16 07:53:10;;;;;;;6.13;0.63;;;12.70;99.90;;;;;;5031594;28;20054;-35
2023/05/16 07:55:35;;;;;;;5.43;0.77;;;12.40;99.90;;;;;;5030433;28;20460;-35
2023/05/16 07:58:02;;;;;;;5.15;0.30;;;12.10;99.90;;;;;;5017662;28;20045;-35
2023/05/16 08:00:28;;;;;;;5.82;0.88;;;11.90;99.90;;;;;;5016622;28;20055;-35
2023/05/16 08:02:54;;;;;;;4.00;0.50;;;11.80;99.90;;;;;;5021480;28;20435;-35
2023/05/16 08:05:19;;;;;;;4.68;1.00;;;11.90;99.90;;;;;;5022889;28;20052;-35
2023/05/16 08:07:45;;;;;;;4.47;0.55;;;12.00;99.90;;;;;;5023711;28;20045;-35
2023/05/16 08:10:11;;;;;;;5.00;0.60;;;12.20;99.90;;;;;;5018862;28;20050;-35
2023/05/16 08:12:36;;;;;;;5.00;0.55;;;12.40;99.90;;;;;;5017449;28;20045;-35
2023/05/16 08:15:03;;;;;;;5.00;0.80;;;12.50;99.90;;;;;;5023994;28;20053;-35
2023/05/16 08:17:28;;;;;;;4.85;0.40;;;12.70;99.90;;;;;;5019444;28;20590;-35
2023/05/16 08:19:55;;;;;;;5.07;0.65;;;12.80;99.90;;;;;;5020433;28;20059;-35
2023/05/16 08:22:20;;;;;;;4.07;0.55;;;12.90;99.90;;;;;;5020335;28;20080;-35
2023/05/16 08:24:46;;;;;;;4.53;0.50;;;13.00;99.90;;;;;;5018157;28;20065;-35
2023/05/16 08:27:11;;;;;;;5.70;0.47;;;13.10;99.90;;;;;;5023751;28;20080;-35
2023/05/16 08:29:37;;;;;;;4.43;0.50;;;13.30;99.90;;;;;;5022003;28;20124;-35
2023/05/16 08:32:03;;;;;;;4.03;0.40;;;13.50;99.90;;;;;;5017444;28;20068;-35
2023/05/16 08:34:32;;;;;;;6.00;0.70;;;13.70;99.90;;;;;;5024652;28;20141;-35
2023/05/16 08:36:59;;;;;;;5.38;0.50;;;13.90;99.90;;;;;;5019766;28;20046;-35
2023/05/16 08:39:25;;;;;;;6.68;0.32;;;14.00;99.90;;;;;;5013170;28;20161;-35
2023/05/16 08:41:50;;;;;;;6.85;0.77;;;13.90;99.90;;;;;;5022764;28;20128;-36
2023/05/16 08:44:20;;;;;;;1.95;0.30;;;13.70;99.90;;;;;;5020177;28;20143;-35
2023/05/16 08:46:53;;;;;;;5.22;0.35;;;13.30;99.90;;;;;;5016856;28;20057;-36
2023/05/16 08:49:20;;;;;;;0.43;0.20;;;12.90;99.90;;;;;;5024055;28;20103;-35
2023/05/16 08:51:47;;;;;;;2.20;0.35;;;12.50;99.90;;;;;;5032899;28;20050;-36
2023/05/16 08:54:15;;;;;;;1.20;0.20;;;12.20;99.90;;;;;;5020904;28;20510;-36
2023/05/16 08:56:41;;;;;;;3.20;0.20;;;12.00;99.90;;;;;;5038856;28;20065;-36
2023/05/16 08:59:07;;;;;;;2.13;0.30;;;11.90;99.90;;;;;;5017013;28;20149;-36
2023/05/16 09:01:33;;;;;;;3.70;0.32;;;11.90;99.90;;;;;;5015742;28;20160;-35
2023/05/16 09:04:00;;;;;;;1.13;0.20;;;12.10;99.90;;;;;;5018584;28;20056;-36
2023/05/16 09:06:26;;;;;;;3.65;0.32;;;12.20;99.90;;;;;;5020260;28;20050;-36
2023/05/16 09:08:55;;;;;;;4.10;0.32;;;12.40;99.90;;;;;;5021784;28;20061;-35
2023/05/16 09:11:21;;;;;;;1.23;0.30;;;12.60;99.90;;;;;;5025832;28;20063;-36
2023/05/16 09:13:47;;;;;;;3.08;0.93;;;12.90;99.90;;;;;;5012140;28;20049;-35
2023/05/16 09:16:19;;;;;;;3.70;0.60;;;13.10;99.90;;;;;;5018556;28;20512;-35
2023/05/16 09:18:56;;;;;;;2.55;0.30;;;13.20;99.90;;;;;;5026532;28;20068;-36
2023/05/16 09:21:28;;;;;;;3.88;0.70;;;13.30;99.90;;;;;;5026658;28;20136;-36
2023/05/16 09:23:54;;;;;;;4.70;0.65;;;13.20;99.90;;;;;;5031289;28;20053;-36
2023/05/16 09:26:20;;;;;;;3.17;0.30;;;13.20;99.90;;;;;;5012883;28;20058;-36
2023/05/16 09:28:46;;;;;;;4.40;0.30;;;13.40;99.90;;;;;;5015681;28;20562;-35
2023/05/16 09:31:38;;;;;;;9.63;0.47;;;13.60;99.90;;;;;;5021273;28;20053;-36
2023/05/16 09:34:09;;;;;;;3.53;0.30;;;13.70;99.90;;;;;;5013715;28;20469;-35
2023/05/16 09:36:35;;;;;;;7.07;1.23;;;13.90;99.90;;;;;;5013259;28;20304;-36
2023/05/16 09:39:01;;;;;;;4.32;1.02;;;14.00;99.90;;;;;;5035434;28;20407;-36
2023/05/16 09:41:27;;;;;;;2.22;0.32;;;14.10;99.90;;;;;;5016625;28;20076;-36
2023/05/16 09:43:52;;;;;;;1.88;0.20;;;14.10;99.90;;;;;;5017305;28;20053;-36
2023/05/16 09:46:23;;;;;;;4.32;0.50;;;14.20;99.90;;;;;;5025298;28;20088;-35
2023/05/16 09:48:50;;;;;;;5.97;0.80;;;14.30;99.90;;;;;;5018843;28;20041;-36
2023/05/16 09:51:21;;;;;;;4.05;0.50;;;14.50;99.90;;;;;;5033376;28;20048;-36
2023/05/16 09:53:47;;;;;;;2.42;0.40;;;14.50;99.90;;;;;;5023545;28;20049;-36
2023/05/16 09:56:14;;;;;;;3.75;0.88;;;14.40;99.90;;;;;;5020621;28;20130;-35
2023/05/16 09:58:42;;;;;;;2.63;0.55;;;14.40;99.90;;;;;;5029972;28;20049;-36
2023/05/16 10:01:09;;;;;;;4.00;0.40;;;14.50;99.90;;;;;;5025673;28;20414;-36
2023/05/16 10:03:37;;;;;;;7.28;0.63;;;14.60;99.90;;;;;;5019857;28;20099;-36
2023/05/16 10:06:04;;;;;;;4.72;0.55;;;14.60;99.90;;;;;;5021898;28;20077;-35
2023/05/16 10:08:35;;;;;;;3.83;0.60;;;14.40;99.90;;;;;;5019470;28;20165;-35
2023/05/16 10:11:01;;;;;;;3.95;0.43;;;14.20;99.90;;;;;;5015784;28;20094;-36
2023/05/16 10:13:32;;;;;;;2.95;0.40;;;14.10;99.90;;;;;;5018790;28;20113;-36
2023/05/16 10:16:00;;;;;;;2.08;0.20;;;14.10;99.90;;;;;;5021210;28;20081;-35
2023/05/16 10:18:31;;;;;;;1.88;0.30;;;14.20;99.90;;;;;;5016082;28;20056;-35
2023/05/16 10:21:03;;;;;;;5.45;1.08;;;14.40;99.90;;;;;;5020287;28;20053;-34
2023/05/16 10:23:30;;;;;;;4.60;0.80;;;14.60;99.90;;;;;;5012686;28;20057;-35
2023/05/16 10:25:57;;;;;;;4.57;0.80;;;14.90;99.90;;;;;;5014446;28;20404;-35
2023/05/16 10:28:23;;;;;;;2.90;0.68;;;15.20;99.90;;;;;;5019724;28;20310;-35
2023/05/16 10:30:50;;;;;;;2.58;0.70;;;15.40;99.90;;;;;;5020920;28;20045;-35
2023/05/16 10:33:18;;;;;;;3.63;0.38;;;15.40;99.90;;;;;;5024451;28;20137;-35
2023/05/16 10:35:45;;;;;;;3.67;1.20;;;15.20;99.90;;;;;;5013468;28;20058;-35
2023/05/16 10:38:13;;;;;;;2.17;0.35;;;15.00;99.90;;;;;;5016419;28;20061;-35
2023/05/16 10:40:40;;;;;;;5.05;0.50;;;14.90;99.90;;;;;;5016241;28;20041;-35
2023/05/16 10:43:07;;;;;;;4.70;0.40;;;14.80;99.90;;;;;;5016022;28;20068;-35
2023/05/16 10:45:34;;;;;;;2.63;0.50;;;15.00;99.90;;;;;;5024566;28;20099;-35
2023/05/16 10:48:08;;;;;;;4.55;0.30;;;15.20;99.90;;;;;;5010706;28;20053;-35
2023/05/16 10:50:44;;;;;;;3.42;0.50;;;15.40;99.90;;;;;;5009450;28;20500;-35
2023/05/16 10:53:34;;;;;;;3.50;0.50;;;15.30;99.90;;;;;;5018702;28;20077;-35
2023/05/16 10:56:02;;;;;;;3.35;0.50;;;15.10;99.90;;;;;;5019008;28;20045;-35
2023/05/16 10:58:34;;;;;;;5.13;0.60;;;15.10;99.90;;;;;;5019365;28;20057;-35
2023/05/16 11:01:21;;;;;;;3.40;0.90;;;15.00;99.90;;;;;;5018692;28;20050;-34
2023/05/16 11:03:56;;;;;;;5.93;0.80;;;15.00;99.90;;;;;;5035516;28;20251;-35
2023/05/16 11:06:41;;;;;;;6.28;0.68;;;15.10;99.90;;;;;;5032137;28;20097;-35
2023/05/16 11:09:10;;;;;;;5.10;0.52;;;15.30;99.90;;;;;;5024925;28;20049;-35
2023/05/16 11:11:50;;;;;;;3.97;0.35;;;15.40;99.90;;;;;;5015958;28;20061;-35
2023/05/16 11:14:36;;;;;;;2.78;0.30;;;15.50;99.90;;;;;;5014375;28;20498;-35
2023/05/16 11:17:12;;;;;;;5.85;0.73;;;15.60;99.90;;;;;;5018790;28;20049;-35
2023/05/16 11:19:58;;;;;;;3.63;0.98;;;15.50;99.90;;;;;;5016479;28;20052;-35
2023/05/16 11:22:23;;;;;;;4.22;0.55;;;15.50;99.90;;;;;;5018238;28;20053;-35
2023/05/16 11:25:05;;;;;;;2.17;0.57;;;15.60;99.90;;;;;;5011517;28;20050;-35
2023/05/16 11:27:35;;;;;;;7.75;1.00;;;15.70;99.90;;;;;;5021897;28;20125;-35
2023/05/16 11:30:09;;;;;;;3.53;0.60;;;15.80;99.90;;;;;;5019202;28;20397;-35
2023/05/16 11:32:37;;;;;;;2.38;0.40;;;15.80;99.90;;;;;;5022307;28;20056;-35
2023/05/16 11:35:04;;;;;;;3.67;0.40;;;15.50;99.90;;;;;;5015780;28;20050;-35
2023/05/16 11:37:29;;;;;;;6.38;0.60;;;15.20;99.90;;;;;;5025980;28;20057;-35
2023/05/16 11:40:03;;;;;;;6.03;0.50;;;14.60;99.90;;;;;;5025908;28;20048;-35
2023/05/16 11:42:34;;;;;;;5.00;0.73;;;14.10;99.90;;;;;;5024142;28;20053;-35
2023/05/16 11:45:07;;;;;;;3.37;0.40;;;13.60;99.90;;;;;;5021712;28;20111;-35
2023/05/16 11:47:35;;;;;;;4.85;0.47;;;13.10;99.90;;;;;;5017771;28;20056;-35
2023/05/16 11:50:08;;;;;;;2.70;0.45;;;12.70;99.90;;;;;;5025539;28;20041;-35
2023/05/16 11:52:35;;;;;;;1.25;0.30;;;12.60;99.90;;;;;;5021150;28;20065;-35
2023/05/16 11:55:00;;;;;;;2.22;0.40;;;12.60;99.90;;;;;;5017943;28;20073;-35
2023/05/16 11:57:26;;;;;;;4.28;0.50;;;12.80;99.90;;;;;;5018635;28;20518;-35
2023/05/16 11:59:53;;;;;;;1.33;0.20;;;13.00;99.90;;;;;;5014850;28;20080;-35
2023/05/16 12:02:19;;;;;;;1.90;0.20;;;13.20;99.90;;;;;;5020575;28;20057;-35
2023/05/16 12:04:49;;;;;;;1.73;0.45;;;13.30;99.90;;;;;;5015387;28;20412;-35
2023/05/16 12:07:15;;;;;;;1.63;0.40;;;13.50;99.90;;;;;;5011231;28;20082;-35
2023/05/16 12:09:40;;;;;;;1.67;0.30;;;13.80;99.90;;;;;;5012754;28;20093;-35
2023/05/16 12:12:07;;;;;;;1.17;0.25;;;14.00;99.90;;;;;;5016642;28;20046;-35
2023/05/16 12:14:33;;;;;;;0.68;0.20;;;14.30;99.90;;;;;;5019101;28;20519;-35
2023/05/16 12:16:58;;;;;;;2.92;0.43;;;14.40;99.90;;;;;;5028841;28;20479;-35
2023/05/16 12:19:24;;;;;;;2.05;0.30;;;14.60;99.90;;;;;;5024890;28;20049;-35
2023/05/16 12:21:53;;;;;;;1.38;0.22;;;14.60;99.90;;;;;;5028702;28;20049;-35
2023/05/16 12:24:20;;;;;;;2.58;0.30;;;14.70;99.90;;;;;;5029945;28;20491;-35
2023/05/16 12:26:46;;;;;;;1.25;0.20;;;14.70;99.90;;;;;;5021209;28;20072;-34
2023/05/16 12:29:12;;;;;;;2.65;0.32;;;14.70;99.90;;;;;;5024144;28;20049;-35
2023/05/16 12:31:40;;;;;;;2.97;0.30;;;14.70;99.90;;;;;;5041658;28;20064;-35
2023/05/16 12:34:17;;;;;;;1.30;0.30;;;14.90;99.90;;;;;;5016693;28;20098;-35
2023/05/16 12:36:43;;;;;;;1.25;0.30;;;14.90;99.90;;;;;;5019314;28;20046;-35
2023/05/16 12:39:11;;;;;;;1.52;0.30;;;15.00;99.90;;;;;;5021810;28;20517;-35
2023/05/16 12:41:41;;;;;;;0.82;0.30;;;15.20;99.90;;;;;;5026940;28;20057;-35
2023/05/16 12:44:13;;;;;;;2.72;0.50;;;15.40;99.90;;;;;;5028175;28;20057;-35
2023/05/16 12:46:50;;;;;;;1.77;0.40;;;15.40;99.90;;;;;;5023565;28;20060;-35
2023/05/16 12:49:19;;;;;;;2.25;0.40;;;15.60;99.90;;;;;;5017298;28;20050;-35
2023/05/16 12:51:53;;;;;;;2.45;0.50;;;15.70;99.90;;;;;;5018379;28;20072;-35
2023/05/16 12:54:21;;;;;;;3.97;0.60;;;15.80;99.90;;;;;;5016966;28;20061;-35